Storm Events Database

Event Details

Event Hail
Magnitude 0.75 in.
State ALABAMA
County/Area FAYETTE
WFO BMX
Begin Date 05/06/2009 07:47:00 CST-6
Begin Range 3
Begin Azimuth ENE
Begin Location NEWTONVILLE
Begin Lat/Lon 33.55/-87.76
End Date 05/06/2009 07:47:00 CST-6
Deaths Direct/Indirect 0/0 (fatality details below, when available...)
Injuries Direct/Indirect 0/0
Property Damage 0.00K
Crop Damage 0.00K
Episode Narrative An upper level disturbance and a nearby stationary front combined to produce numerous severe thunderstorms across Central Alabama, that included damaging winds, large hail, and several tornadoes.
Event Narrative


All events for this episode:

Location County/Zone St. Date Time T.Z. Type Mag Dth Inj PrD CrD
Totals: 0 0 1.620M 0.00K
HAMILTON MARION CO. AL 05/06/2009 06:06 CST-6 Thunderstorm Wind 50 kts. EG 0 0 3.00K 0.00K
MORELAND WINSTON CO. AL 05/06/2009 07:05 CST-6 Thunderstorm Wind 50 kts. EG 0 0 2.00K 0.00K
PICKENSVILLE PICKENS CO. AL 05/06/2009 07:20 CST-6 Tornado EF1 0 0 50.00K 0.00K
PANOLA SUMTER CO. AL 05/06/2009 07:25 CST-6 Thunderstorm Wind 50 kts. EG 0 0 2.00K 0.00K
CARROLLTON PICKENS CO. AL 05/06/2009 07:31 CST-6 Tornado EF1 0 0 50.00K 0.00K
CREWS LAMAR CO. AL 05/06/2009 07:45 CST-6 Flash Flood 0 0 10.00K 0.00K
NEWTONVILLE FAYETTE CO. AL 05/06/2009 07:47 CST-6 Hail 0.75 in. 0 0 0.00K 0.00K
SAMANTHA TUSCALOOSA CO. AL 05/06/2009 07:48 CST-6 Tornado EF1 0 0 65.00K 0.00K
SHIRLEY TUSCALOOSA CO. AL 05/06/2009 07:57 CST-6 Tornado EF1 0 0 100.00K 0.00K
FOSTERS TUSCALOOSA CO. AL 05/06/2009 08:00 CST-6 Thunderstorm Wind 50 kts. EG 0 0 10.00K 0.00K
CARONA WALKER CO. AL 05/06/2009 08:00 CST-6 Thunderstorm Wind 50 kts. EG 0 0 1.00K 0.00K
NORTHPORT TUSCALOOSA CO. AL 05/06/2009 08:10 CST-6 Thunderstorm Wind 61 kts. EG 0 0 15.00K 0.00K
JASPER WALKER CO. AL 05/06/2009 08:11 CST-6 Tornado EF0 0 0 850.00K 0.00K
CORDOVA WALKER CO. AL 05/06/2009 08:20 CST-6 Thunderstorm Wind 55 kts. EG 0 0 20.00K 0.00K
CORDOVA WALKER CO. AL 05/06/2009 08:20 CST-6 Tornado EF1 0 0 260.00K 0.00K
SIPSEY WALKER CO. AL 05/06/2009 08:24 CST-6 Tornado EF0 0 0 25.00K 0.00K
BLOUNT SPGS BLOUNT CO. AL 05/06/2009 08:45 CST-6 Tornado EF0 0 0 2.00K 0.00K
WARRIOR JEFFERSON CO. AL 05/06/2009 08:50 CST-6 Tornado EF1 0 0 50.00K 0.00K
WOODLAWN JEFFERSON CO. AL 05/06/2009 09:00 CST-6 Thunderstorm Wind 60 kts. EG 0 0 100.00K 0.00K
CLEVELAND BLOUNT CO. AL 05/06/2009 09:19 CST-6 Thunderstorm Wind 50 kts. EG 0 0 2.00K 0.00K
ONEONTA BLOUNT CO. AL 05/06/2009 09:20 CST-6 Thunderstorm Wind 40 kts. EG 0 0 0.50K 0.00K
GRAYTON CALHOUN CO. AL 05/06/2009 10:14 CST-6 Thunderstorm Wind 50 kts. EG 0 0 2.00K 0.00K
PINEDALE MONTGOMERY CO. AL 05/06/2009 12:07 CST-6 Hail 0.88 in. 0 0 0.00K 0.00K
HOPE HULL MONTGOMERY CO. AL 05/06/2009 12:09 CST-6 Hail 0.88 in. 0 0 0.00K 0.00K
MERRY MONTGOMERY CO. AL 05/06/2009 12:23 CST-6 Hail 0.88 in. 0 0 0.00K 0.00K
Totals: 0 0 1.620M 0.00K